Amo, Indiana
Current Conditions -  °F | °C
As of 5:35 PM on Friday 24 Oct 2014 (Local Time) from K4I7 Reporting Station
Scattered Clouds Scattered Clouds  
Wind Chill: 64°   Ceiling: Unl
Heat Index: 64°   Visibility: 7mi
Dew Point: 52°   Wind: 0mph
Humidity: 64%   Direction: NA
Pressure: 30.03"   Gusts: NA
Location:  39.69°N, 86.61°W
Report Text: K4I7 242135Z AUTO 00000KT 7SM SCT033 18/11 A3003 RMK AO2
Loading
Personal Weather Stations






























Interactive Weather Map
Tropical Storm Tracking
New forecast layout! Learn more

10-Day Weather Forecast

Advertisements
Track Severe Weather on mobile